Time,TemperatureF,DewpointF,PressureIn,WindDirection,WindDirectionDegrees,WindSpeedMPH,WindSpeedGustMPH,Humidity,HourlyPrecipIn,Conditions,Clouds,dailyrainin,SoftwareType,DateUTC
2014-01-12 00:04:00,40.9,33.5,29.06,North,0,0.0,0.0,75,0.00,,,0.00,WUHU216HW,2014-01-12 08:04:00,
2014-01-12 00:09:00,40.9,33.5,29.07,North,0,0.0,0.0,75,0.00,,,0.00,WUHU216HW,2014-01-12 08:09:00,
2014-01-12 00:14:00,40.9,33.1,29.08,North,0,0.0,0.0,74,0.00,,,0.00,WUHU216HW,2014-01-12 08:14:00,
2014-01-12 00:19:00,40.9,33.1,29.09,North,0,0.0,0.0,74,0.00,,,0.00,WUHU216HW,2014-01-12 08:19:00,
2014-01-12 00:24:00,40.7,33.0,29.10,North,0,0.0,0.0,74,0.00,,,0.00,WUHU216HW,2014-01-12 08:24:00,
2014-01-12 00:29:00,41.0,33.3,29.09,North,0,0.0,0.0,74,0.00,,,0.00,WUHU216HW,2014-01-12 08:29:00,
2014-01-12 00:34:00,41.4,33.0,29.09,North,0,0.0,0.0,72,0.00,,,0.00,WUHU216HW,2014-01-12 08:34:00,
2014-01-12 00:39:00,41.4,33.4,29.10,North,0,0.0,0.0,73,0.00,,,0.00,WUHU216HW,2014-01-12 08:39:00,
2014-01-12 00:44:00,41.4,33.4,29.11,North,0,0.0,0.0,73,0.00,,,0.00,WUHU216HW,2014-01-12 08:44:00,
2014-01-12 00:49:00,41.4,33.0,29.10,North,0,0.0,0.0,72,0.00,,,0.00,WUHU216HW,2014-01-12 08:49:00,
2014-01-12 00:54:00,41.4,33.0,29.12,North,0,0.0,0.0,72,0.00,,,0.00,WUHU216HW,2014-01-12 08:54:00,
2014-01-12 00:59:00,41.4,33.4,29.12,North,0,0.0,0.0,73,0.00,,,0.00,WUHU216HW,2014-01-12 08:59:00,
2014-01-12 01:04:00,41.2,33.2,29.13,North,0,0.0,0.0,73,0.00,,,0.00,WUHU216HW,2014-01-12 09:04:00,
2014-01-12 01:09:00,41.0,33.0,29.13,North,0,0.0,0.0,73,0.00,,,0.00,WUHU216HW,2014-01-12 09:09:00,
2014-01-12 01:14:00,41.2,33.2,29.12,North,0,0.0,0.0,73,0.00,,,0.00,WUHU216HW,2014-01-12 09:14:00,
2014-01-12 01:19:00,41.4,33.4,29.12,North,0,0.0,0.0,73,0.00,,,0.00,WUHU216HW,2014-01-12 09:19:00,
2014-01-12 01:24:00,41.4,33.4,29.12,North,0,0.0,0.0,73,0.00,,,0.00,WUHU216HW,2014-01-12 09:24:00,
2014-01-12 01:29:00,41.4,33.4,29.13,North,0,0.0,0.0,73,0.00,,,0.00,WUHU216HW,2014-01-12 09:29:00,
2014-01-12 01:34:00,41.4,33.7,29.14,North,0,0.0,0.0,74,0.00,,,0.00,WUHU216HW,2014-01-12 09:34:00,
2014-01-12 01:39:00,41.4,33.7,29.14,North,0,0.0,0.0,74,0.00,,,0.00,WUHU216HW,2014-01-12 09:39:00,
2014-01-12 01:44:00,41.6,33.8,29.15,North,0,0.0,0.0,74,0.00,,,0.00,WUHU216HW,2014-01-12 09:44:00,
2014-01-12 01:49:00,41.6,33.6,29.16,North,0,0.0,0.0,73,0.00,,,0.00,WUHU216HW,2014-01-12 09:49:00,
2014-01-12 01:54:00,41.6,33.6,29.16,North,0,0.0,0.0,73,0.00,,,0.00,WUHU216HW,2014-01-12 09:54:00,
2014-01-12 01:59:00,41.4,33.7,29.17,North,0,0.0,0.0,74,0.00,,,0.00,WUHU216HW,2014-01-12 09:59:00,
2014-01-12 02:04:00,41.4,33.7,29.18,North,0,0.0,0.0,74,0.00,,,0.00,WUHU216HW,2014-01-12 10:04:00,
2014-01-12 02:09:00,41.4,33.7,29.18,North,0,0.0,0.0,74,0.00,,,0.00,WUHU216HW,2014-01-12 10:09:00,
2014-01-12 02:14:00,41.4,33.7,29.18,North,0,0.0,0.0,74,0.00,,,0.00,WUHU216HW,2014-01-12 10:14:00,
2014-01-12 02:19:00,41.2,33.5,29.20,North,0,0.0,0.0,74,0.00,,,0.00,WUHU216HW,2014-01-12 10:19:00,
2014-01-12 02:24:00,41.0,33.3,29.20,North,0,0.0,0.0,74,0.00,,,0.00,WUHU216HW,2014-01-12 10:24:00,
2014-01-12 02:29:00,40.9,33.5,29.21,North,0,0.0,0.0,75,0.00,,,0.00,WUHU216HW,2014-01-12 10:29:00,
2014-01-12 02:34:00,40.7,33.3,29.21,North,0,0.0,0.0,75,0.00,,,0.00,WUHU216HW,2014-01-12 10:34:00,
2014-01-12 02:39:00,40.7,33.3,29.21,North,0,0.0,0.0,75,0.00,,,0.00,WUHU216HW,2014-01-12 10:39:00,
2014-01-12 02:44:00,40.7,33.3,29.22,North,0,0.0,0.0,75,0.00,,,0.00,WUHU216HW,2014-01-12 10:44:00,
2014-01-12 02:49:00,40.7,33.0,29.22,North,0,0.0,0.0,74,0.00,,,0.00,WUHU216HW,2014-01-12 10:49:00,
2014-01-12 02:54:00,40.5,32.9,29.23,North,0,0.0,0.0,74,0.00,,,0.00,WUHU216HW,2014-01-12 10:54:00,
2014-01-12 02:59:00,40.9,31.5,29.24,North,0,0.0,0.0,69,0.00,,,0.00,WUHU216HW,2014-01-12 10:59:00,
2014-01-12 03:04:00,40.9,31.5,29.24,North,0,0.0,0.0,69,0.00,,,0.00,WUHU216HW,2014-01-12 11:04:00,
2014-01-12 03:09:00,41.0,30.9,29.24,North,0,0.0,0.0,67,0.00,,,0.00,WUHU216HW,2014-01-12 11:09:00,
2014-01-12 03:14:00,41.0,31.7,29.24,North,0,0.0,0.0,69,0.00,,,0.00,WUHU216HW,2014-01-12 11:14:00,
2014-01-12 03:19:00,40.7,31.0,29.25,North,0,0.0,0.0,68,0.00,,,0.00,WUHU216HW,2014-01-12 11:19:00,
2014-01-12 03:24:00,41.4,29.7,29.25,North,0,0.0,0.0,63,0.00,,,0.00,WUHU216HW,2014-01-12 11:24:00,
2014-01-12 03:29:00,41.8,30.9,29.25,North,0,0.0,0.0,65,0.00,,,0.00,WUHU216HW,2014-01-12 11:29:00,
2014-01-12 03:34:00,41.8,29.3,29.25,North,0,0.0,0.0,61,0.00,,,0.00,WUHU216HW,2014-01-12 11:34:00,
2014-01-12 03:39:00,42.5,28.7,29.26,North,0,0.0,0.0,58,0.00,,,0.00,WUHU216HW,2014-01-12 11:39:00,
2014-01-12 03:44:00,42.8,28.6,29.26,North,0,0.0,0.0,57,0.00,,,0.00,WUHU216HW,2014-01-12 11:44:00,
2014-01-12 03:49:00,43.2,28.1,29.27,North,0,0.0,0.0,55,0.00,,,0.00,WUHU216HW,2014-01-12 11:49:00,
2014-01-12 03:54:00,43.7,27.7,29.27,North,0,0.0,0.0,53,0.00,,,0.00,WUHU216HW,2014-01-12 11:54:00,
2014-01-12 03:59:00,44.1,28.0,29.26,North,0,0.0,0.0,53,0.00,,,0.00,WUHU216HW,2014-01-12 11:59:00,
2014-01-12 04:04:00,44.3,27.7,29.27,North,0,0.0,0.0,52,0.00,,,0.00,WUHU216HW,2014-01-12 12:04:00,
2014-01-12 04:09:00,44.5,27.9,29.28,North,0,0.0,0.0,52,0.00,,,0.00,WUHU216HW,2014-01-12 12:09:00,
2014-01-12 04:14:00,44.3,27.7,29.30,North,0,0.0,0.0,52,0.00,,,0.00,WUHU216HW,2014-01-12 12:14:00,
2014-01-12 04:19:00,43.6,29.3,29.31,North,0,0.0,0.0,57,0.00,,,0.00,WUHU216HW,2014-01-12 12:19:00,
2014-01-12 04:24:00,42.8,29.0,29.31,North,0,0.0,0.0,58,0.00,,,0.00,WUHU216HW,2014-01-12 12:24:00,
2014-01-12 04:29:00,43.2,27.6,29.31,North,0,0.0,0.0,54,0.00,,,0.00,WUHU216HW,2014-01-12 12:29:00,
2014-01-12 04:34:00,43.0,31.2,29.32,North,0,0.0,0.0,63,0.00,,,0.00,WUHU216HW,2014-01-12 12:34:00,
2014-01-12 04:39:00,41.9,31.8,29.31,North,0,0.0,0.0,67,0.00,,,0.00,WUHU216HW,2014-01-12 12:39:00,
2014-01-12 04:44:00,41.6,31.1,29.31,North,0,0.0,0.0,66,0.00,,,0.00,WUHU216HW,2014-01-12 12:44:00,
2014-01-12 04:49:00,41.9,30.3,29.31,North,0,0.0,0.0,63,0.00,,,0.00,WUHU216HW,2014-01-12 12:49:00,
2014-01-12 04:54:00,42.1,30.8,29.31,North,0,0.0,0.0,64,0.00,,,0.00,WUHU216HW,2014-01-12 12:54:00,
2014-01-12 04:59:00,42.1,30.4,29.31,North,0,0.0,0.0,63,0.00,,,0.00,WUHU216HW,2014-01-12 12:59:00,
2014-01-12 05:04:00,42.1,30.8,29.31,North,0,0.0,0.0,64,0.00,,,0.00,WUHU216HW,2014-01-12 13:04:00,
2014-01-12 05:09:00,41.8,31.2,29.31,North,0,0.0,0.0,66,0.00,,,0.00,WUHU216HW,2014-01-12 13:09:00,
2014-01-12 05:14:00,41.4,31.2,29.31,North,0,0.0,0.0,67,0.00,,,0.00,WUHU216HW,2014-01-12 13:14:00,
2014-01-12 05:19:00,41.4,31.2,29.31,North,0,0.0,0.0,67,0.00,,,0.00,WUHU216HW,2014-01-12 13:19:00,
2014-01-12 05:24:00,41.0,30.9,29.31,North,0,0.0,0.0,67,0.00,,,0.00,WUHU216HW,2014-01-12 13:24:00,
2014-01-12 05:29:00,41.0,30.9,29.31,North,0,0.0,0.0,67,0.00,,,0.00,WUHU216HW,2014-01-12 13:29:00,
2014-01-12 05:34:00,41.6,29.9,29.32,North,0,0.0,0.0,63,0.00,,,0.00,WUHU216HW,2014-01-12 13:34:00,
2014-01-12 05:39:00,42.8,29.4,29.33,North,0,0.0,0.0,59,0.00,,,0.00,WUHU216HW,2014-01-12 13:39:00,
2014-01-12 05:44:00,41.4,31.2,29.33,North,0,0.0,0.0,67,0.00,,,0.00,WUHU216HW,2014-01-12 13:44:00,
2014-01-12 05:49:00,41.0,32.0,29.34,North,0,0.0,0.0,70,0.00,,,0.00,WUHU216HW,2014-01-12 13:49:00,
2014-01-12 05:54:00,40.9,32.2,29.34,North,0,0.0,0.0,71,0.00,,,0.00,WUHU216HW,2014-01-12 13:54:00,
2014-01-12 05:59:00,40.9,32.2,29.35,North,0,0.0,0.0,71,0.00,,,0.00,WUHU216HW,2014-01-12 13:59:00,
2014-01-12 06:04:00,40.7,32.1,29.35,North,0,0.0,0.0,71,0.00,,,0.00,WUHU216HW,2014-01-12 14:04:00,
2014-01-12 06:09:00,40.7,32.1,29.36,North,0,0.0,0.0,71,0.00,,,0.00,WUHU216HW,2014-01-12 14:09:00,
2014-01-12 06:14:00,40.7,32.1,29.36,North,0,0.0,0.0,71,0.00,,,0.00,WUHU216HW,2014-01-12 14:14:00,
2014-01-12 06:19:00,40.7,32.1,29.36,North,0,0.0,0.0,71,0.00,,,0.00,WUHU216HW,2014-01-12 14:19:00,
2014-01-12 06:24:00,40.7,32.3,29.36,North,0,0.0,0.0,72,0.00,,,0.00,WUHU216HW,2014-01-12 14:24:00,
2014-01-12 06:29:00,40.7,32.1,29.36,North,0,0.0,0.0,71,0.00,,,0.00,WUHU216HW,2014-01-12 14:29:00,
2014-01-12 06:34:00,40.7,32.1,29.36,North,0,0.0,0.0,71,0.00,,,0.00,WUHU216HW,2014-01-12 14:34:00,
2014-01-12 06:39:00,40.7,31.7,29.36,North,0,0.0,0.0,70,0.00,,,0.00,WUHU216HW,2014-01-12 14:39:00,
2014-01-12 06:44:00,41.0,31.7,29.36,North,0,0.0,0.0,69,0.00,,,0.00,WUHU216HW,2014-01-12 14:44:00,
2014-01-12 06:49:00,40.9,31.9,29.36,North,0,0.0,0.0,70,0.00,,,0.00,WUHU216HW,2014-01-12 14:49:00,
2014-01-12 06:54:00,41.0,32.0,29.36,North,0,0.0,0.0,70,0.00,,,0.00,WUHU216HW,2014-01-12 14:54:00,
2014-01-12 06:59:00,41.0,32.0,29.37,North,0,0.0,0.0,70,0.00,,,0.00,WUHU216HW,2014-01-12 14:59:00,
2014-01-12 07:04:00,41.0,32.4,29.36,North,0,0.0,0.0,71,0.00,,,0.00,WUHU216HW,2014-01-12 15:04:00,
2014-01-12 07:09:00,40.9,32.2,29.36,North,0,0.0,0.0,71,0.00,,,0.00,WUHU216HW,2014-01-12 15:09:00,
2014-01-12 07:14:00,40.9,32.2,29.36,North,0,0.0,0.0,71,0.00,,,0.00,WUHU216HW,2014-01-12 15:14:00,
2014-01-12 07:19:00,41.0,32.0,29.36,North,0,0.0,0.0,70,0.00,,,0.00,WUHU216HW,2014-01-12 15:19:00,
2014-01-12 07:24:00,41.0,32.0,29.36,North,0,0.0,0.0,70,0.00,,,0.00,WUHU216HW,2014-01-12 15:24:00,
2014-01-12 07:29:00,41.0,32.0,29.36,North,0,0.0,0.0,70,0.00,,,0.00,WUHU216HW,2014-01-12 15:29:00,
2014-01-12 07:34:00,41.0,32.4,29.36,North,0,0.0,0.0,71,0.00,,,0.00,WUHU216HW,2014-01-12 15:34:00,
2014-01-12 07:39:00,41.2,32.2,29.35,North,0,0.0,0.0,70,0.00,,,0.00,WUHU216HW,2014-01-12 15:39:00,
2014-01-12 07:44:00,41.2,32.2,29.35,North,0,0.0,0.0,70,0.00,,,0.00,WUHU216HW,2014-01-12 15:44:00,
2014-01-12 07:49:00,41.4,32.4,29.36,North,0,0.0,0.0,70,0.00,,,0.00,WUHU216HW,2014-01-12 15:49:00,
2014-01-12 07:54:00,41.2,32.6,29.36,North,0,0.0,0.0,71,0.00,,,0.00,WUHU216HW,2014-01-12 15:54:00,
2014-01-12 07:59:00,41.0,32.4,29.38,North,0,0.0,0.0,71,0.00,,,0.00,WUHU216HW,2014-01-12 15:59:00,
2014-01-12 08:04:00,41.0,32.4,29.38,North,0,0.0,0.0,71,0.00,,,0.00,WUHU216HW,2014-01-12 16:04:00,
2014-01-12 08:09:00,41.0,32.7,29.39,North,0,0.0,0.0,72,0.00,,,0.00,WUHU216HW,2014-01-12 16:09:00,
2014-01-12 08:14:00,41.4,32.8,29.39,North,0,0.0,0.0,71,0.00,,,0.00,WUHU216HW,2014-01-12 16:14:00,
2014-01-12 08:19:00,41.4,32.8,29.40,North,0,0.0,0.0,71,0.00,,,0.00,WUHU216HW,2014-01-12 16:19:00,
2014-01-12 08:24:00,41.4,32.8,29.41,North,0,0.0,0.0,71,0.00,,,0.00,WUHU216HW,2014-01-12 16:24:00,
2014-01-12 08:29:00,41.4,33.0,29.40,North,0,0.0,0.0,72,0.00,,,0.00,WUHU216HW,2014-01-12 16:29:00,
2014-01-12 08:34:00,41.6,33.2,29.41,North,0,0.0,0.0,72,0.00,,,0.00,WUHU216HW,2014-01-12 16:34:00,
2014-01-12 08:39:00,41.6,33.2,29.42,North,0,0.0,0.0,72,0.00,,,0.00,WUHU216HW,2014-01-12 16:39:00,
2014-01-12 08:44:00,41.6,33.2,29.43,North,0,0.0,0.0,72,0.00,,,0.00,WUHU216HW,2014-01-12 16:44:00,
2014-01-12 08:49:00,41.9,33.3,29.43,North,0,0.0,0.0,71,0.00,,,0.00,WUHU216HW,2014-01-12 16:49:00,
2014-01-12 08:54:00,41.9,33.3,29.43,North,0,0.0,0.0,71,0.00,,,0.00,WUHU216HW,2014-01-12 16:54:00,
2014-01-12 08:59:00,42.1,33.5,29.43,North,0,0.0,0.0,71,0.00,,,0.00,WUHU216HW,2014-01-12 16:59:00,
2014-01-12 09:04:00,42.3,33.7,29.44,North,0,0.0,0.0,71,0.00,,,0.00,WUHU216HW,2014-01-12 17:04:00,
2014-01-12 09:09:00,42.5,33.9,29.44,North,0,0.0,0.0,71,0.00,,,0.00,WUHU216HW,2014-01-12 17:09:00,
2014-01-12 09:14:00,42.3,33.7,29.44,North,0,0.0,0.0,71,0.00,,,0.00,WUHU216HW,2014-01-12 17:14:00,
2014-01-12 09:19:00,42.5,33.9,29.43,North,0,0.0,0.0,71,0.00,,,0.00,WUHU216HW,2014-01-12 17:19:00,
2014-01-12 09:24:00,42.7,34.0,29.44,North,0,0.0,0.0,71,0.00,,,0.00,WUHU216HW,2014-01-12 17:24:00,
2014-01-12 09:29:00,42.8,34.2,29.44,North,0,0.0,0.0,71,0.00,,,0.00,WUHU216HW,2014-01-12 17:29:00,
2014-01-12 09:34:00,43.2,34.2,29.44,North,0,0.0,0.0,70,0.00,,,0.00,WUHU216HW,2014-01-12 17:34:00,
2014-01-12 09:39:00,43.6,34.1,29.43,North,0,0.0,0.0,69,0.00,,,0.00,WUHU216HW,2014-01-12 17:39:00,
2014-01-12 09:44:00,43.7,33.8,29.43,North,0,0.0,0.0,68,0.00,,,0.00,WUHU216HW,2014-01-12 17:44:00,
2014-01-12 09:49:00,44.3,34.4,29.43,North,0,0.0,0.0,68,0.00,,,0.00,WUHU216HW,2014-01-12 17:49:00,
2014-01-12 09:54:00,44.6,34.3,29.43,North,0,0.0,0.0,67,0.00,,,0.00,WUHU216HW,2014-01-12 17:54:00,
2014-01-12 09:59:00,44.6,34.3,29.42,North,0,0.0,0.0,67,0.00,,,0.00,WUHU216HW,2014-01-12 17:59:00,
2014-01-12 10:04:00,44.8,34.1,29.42,North,0,0.0,0.0,66,0.00,,,0.00,WUHU216HW,2014-01-12 18:04:00,
2014-01-12 10:09:00,44.8,34.5,29.41,North,0,0.0,0.0,67,0.00,,,0.00,WUHU216HW,2014-01-12 18:09:00,
2014-01-12 10:14:00,45.0,34.3,29.42,North,0,0.0,0.0,66,0.00,,,0.00,WUHU216HW,2014-01-12 18:14:00,
2014-01-12 10:19:00,45.2,34.5,29.42,North,0,0.0,0.0,66,0.00,,,0.00,WUHU216HW,2014-01-12 18:19:00,
2014-01-12 10:24:00,45.4,34.7,29.43,North,0,0.0,0.0,66,0.00,,,0.00,WUHU216HW,2014-01-12 18:24:00,
2014-01-12 10:29:00,45.4,34.3,29.42,North,0,0.0,0.0,65,0.00,,,0.00,WUHU216HW,2014-01-12 18:29:00,
2014-01-12 10:34:00,45.5,34.5,29.43,North,0,0.0,0.0,65,0.00,,,0.00,WUHU216HW,2014-01-12 18:34:00,
2014-01-12 10:39:00,45.9,34.7,29.43,North,0,0.0,0.0,65,0.00,,,0.00,WUHU216HW,2014-01-12 18:39:00,
2014-01-12 10:44:00,46.3,34.8,29.42,North,0,0.0,0.0,64,0.00,,,0.00,WUHU216HW,2014-01-12 18:44:00,
2014-01-12 10:49:00,46.4,34.5,29.42,North,0,0.0,0.0,63,0.00,,,0.00,WUHU216HW,2014-01-12 18:49:00,
2014-01-12 10:54:00,46.4,34.5,29.43,North,0,0.0,0.0,63,0.00,,,0.00,WUHU216HW,2014-01-12 18:54:00,
2014-01-12 10:59:00,46.6,34.7,29.43,North,0,0.0,0.0,63,0.00,,,0.00,WUHU216HW,2014-01-12 18:59:00,
2014-01-12 11:04:00,46.6,34.7,29.43,North,0,0.0,0.0,63,0.00,,,0.00,WUHU216HW,2014-01-12 19:04:00,
2014-01-12 11:09:00,46.4,34.5,29.43,North,0,0.0,0.0,63,0.00,,,0.00,WUHU216HW,2014-01-12 19:09:00,
2014-01-12 11:14:00,46.4,34.5,29.43,North,0,0.0,0.0,63,0.00,,,0.00,WUHU216HW,2014-01-12 19:14:00,
2014-01-12 11:20:00,46.4,34.5,29.43,North,0,0.0,0.0,63,0.00,,,0.00,WUHU216HW,2014-01-12 19:20:00,
2014-01-12 11:25:00,46.4,34.5,29.43,North,0,0.0,0.0,63,0.00,,,0.00,WUHU216HW,2014-01-12 19:25:00,
2014-01-12 11:30:00,47.2,34.8,29.42,North,0,0.0,0.0,62,0.00,,,0.00,WUHU216HW,2014-01-12 19:30:00,
2014-01-12 11:35:00,48.1,35.3,29.42,North,0,0.0,0.0,61,0.00,,,0.00,WUHU216HW,2014-01-12 19:35:00,
2014-01-12 11:40:00,49.1,35.5,29.42,North,0,0.0,0.0,59,0.00,,,0.00,WUHU216HW,2014-01-12 19:40:00,
2014-01-12 11:45:00,49.1,35.5,29.41,North,0,0.0,0.0,59,0.00,,,0.00,WUHU216HW,2014-01-12 19:45:00,
2014-01-12 11:50:00,49.0,35.3,29.42,North,0,0.0,0.0,59,0.00,,,0.00,WUHU216HW,2014-01-12 19:50:00,
2014-01-12 11:55:00,48.6,35.5,29.41,North,0,0.0,0.0,60,0.00,,,0.00,WUHU216HW,2014-01-12 19:55:00,
2014-01-12 12:00:00,48.6,35.5,29.41,North,0,0.0,0.0,60,0.00,,,0.00,WUHU216HW,2014-01-12 20:00:00,
2014-01-12 12:05:00,47.9,35.1,29.42,North,0,0.0,0.0,61,0.00,,,0.00,WUHU216HW,2014-01-12 20:05:00,
2014-01-12 12:10:00,47.9,35.1,29.42,North,0,0.0,0.0,61,0.00,,,0.00,WUHU216HW,2014-01-12 20:10:00,
2014-01-12 12:15:00,47.9,35.1,29.41,North,0,0.0,0.0,61,0.00,,,0.00,WUHU216HW,2014-01-12 20:15:00,
2014-01-12 12:20:00,48.4,35.6,29.41,North,0,0.0,0.0,61,0.00,,,0.00,WUHU216HW,2014-01-12 20:20:00,
2014-01-12 12:25:00,48.6,35.8,29.41,North,0,0.0,0.0,61,0.00,,,0.00,WUHU216HW,2014-01-12 20:25:00,
2014-01-12 12:30:00,49.5,36.6,29.41,North,0,0.0,0.0,61,0.00,,,0.00,WUHU216HW,2014-01-12 20:30:00,
2014-01-12 12:35:00,50.2,36.9,29.41,North,0,0.0,0.0,60,0.00,,,0.00,WUHU216HW,2014-01-12 20:35:00,
2014-01-12 12:40:00,49.7,36.4,29.40,North,0,0.0,0.0,60,0.00,,,0.00,WUHU216HW,2014-01-12 20:40:00,
2014-01-12 12:45:00,49.3,36.5,29.40,North,0,0.0,0.0,61,0.00,,,0.00,WUHU216HW,2014-01-12 20:45:00,
2014-01-12 12:50:00,49.3,36.8,29.40,North,0,0.0,0.0,62,0.00,,,0.00,WUHU216HW,2014-01-12 20:50:00,
2014-01-12 12:55:00,49.7,37.2,29.40,North,0,0.0,0.0,62,0.00,,,0.00,WUHU216HW,2014-01-12 20:55:00,
2014-01-12 13:00:00,49.9,37.0,29.40,North,0,0.0,0.0,61,0.00,,,0.00,WUHU216HW,2014-01-12 21:00:00,
2014-01-12 13:05:00,50.6,37.6,29.41,North,0,0.0,0.0,61,0.00,,,0.00,WUHU216HW,2014-01-12 21:05:00,
2014-01-12 13:10:00,51.1,37.3,29.41,North,0,0.0,0.0,59,0.00,,,0.00,WUHU216HW,2014-01-12 21:10:00,
2014-01-12 13:15:00,50.9,37.1,29.41,North,0,0.0,0.0,59,0.00,,,0.00,WUHU216HW,2014-01-12 21:15:00,
2014-01-12 13:20:00,51.3,37.5,29.42,North,0,0.0,0.0,59,0.00,,,0.00,WUHU216HW,2014-01-12 21:20:00,
2014-01-12 13:25:00,51.3,37.5,29.42,North,0,0.0,0.0,59,0.00,,,0.00,WUHU216HW,2014-01-12 21:25:00,
2014-01-12 13:30:00,51.1,37.3,29.41,North,0,0.0,0.0,59,0.00,,,0.00,WUHU216HW,2014-01-12 21:30:00,
2014-01-12 13:35:00,50.9,37.5,29.41,North,0,0.0,0.0,60,0.00,,,0.00,WUHU216HW,2014-01-12 21:35:00,
2014-01-12 13:40:00,51.7,37.7,29.41,North,0,0.0,0.0,59,0.00,,,0.00,WUHU216HW,2014-01-12 21:40:00,
2014-01-12 13:45:00,51.8,37.9,29.41,North,0,0.0,0.0,59,0.00,,,0.00,WUHU216HW,2014-01-12 21:45:00,
2014-01-12 13:50:00,51.5,37.5,29.41,North,0,0.0,0.0,59,0.00,,,0.00,WUHU216HW,2014-01-12 21:50:00,
2014-01-12 13:55:00,51.1,38.1,29.41,North,0,0.0,0.0,61,0.00,,,0.00,WUHU216HW,2014-01-12 21:55:00,
2014-01-12 14:00:00,50.8,38.2,29.41,North,0,0.0,0.0,62,0.00,,,0.00,WUHU216HW,2014-01-12 22:00:00,
2014-01-12 14:05:00,50.6,38.0,29.41,North,0,0.0,0.0,62,0.00,,,0.00,WUHU216HW,2014-01-12 22:05:00,
2014-01-12 14:10:00,50.4,38.3,29.41,North,0,0.0,0.0,63,0.00,,,0.00,WUHU216HW,2014-01-12 22:10:00,
2014-01-12 14:15:00,50.2,38.1,29.41,North,0,0.0,0.0,63,0.00,,,0.00,WUHU216HW,2014-01-12 22:15:00,
2014-01-12 14:20:00,50.0,38.4,29.41,North,0,0.0,0.0,64,0.00,,,0.00,WUHU216HW,2014-01-12 22:20:00,
2014-01-12 14:25:00,49.9,38.2,29.42,North,0,0.0,0.0,64,0.00,,,0.00,WUHU216HW,2014-01-12 22:25:00,
2014-01-12 14:30:00,49.7,38.0,29.41,North,0,0.0,0.0,64,0.00,,,0.00,WUHU216HW,2014-01-12 22:30:00,
2014-01-12 14:35:00,49.5,38.2,29.41,North,0,0.0,0.0,65,0.00,,,0.00,WUHU216HW,2014-01-12 22:35:00,
2014-01-12 14:40:00,49.5,38.2,29.41,North,0,0.0,0.0,65,0.00,,,0.00,WUHU216HW,2014-01-12 22:40:00,
2014-01-12 14:45:00,49.3,38.0,29.41,North,0,0.0,0.0,65,0.00,,,0.00,WUHU216HW,2014-01-12 22:45:00,
2014-01-12 14:50:00,49.3,38.0,29.42,North,0,0.0,0.0,65,0.00,,,0.00,WUHU216HW,2014-01-12 22:50:00,
2014-01-12 14:55:00,49.5,38.6,29.41,North,0,0.0,0.0,66,0.00,,,0.00,WUHU216HW,2014-01-12 22:55:00,
2014-01-12 15:00:00,49.5,38.6,29.41,North,0,0.0,0.0,66,0.00,,,0.00,WUHU216HW,2014-01-12 23:00:00,
2014-01-12 15:05:00,49.7,39.2,29.41,North,0,0.0,0.0,67,0.00,,,0.00,WUHU216HW,2014-01-12 23:05:00,
2014-01-12 15:10:00,49.7,39.2,29.41,North,0,0.0,0.0,67,0.00,,,0.00,WUHU216HW,2014-01-12 23:10:00,
2014-01-12 15:15:00,49.9,39.3,29.41,North,0,0.0,0.0,67,0.00,,,0.00,WUHU216HW,2014-01-12 23:15:00,
2014-01-12 15:20:00,50.0,39.5,29.41,North,0,0.0,0.0,67,0.00,,,0.00,WUHU216HW,2014-01-12 23:20:00,
2014-01-12 15:25:00,50.4,39.9,29.42,North,0,0.0,0.0,67,0.00,,,0.00,WUHU216HW,2014-01-12 23:25:00,
2014-01-12 15:30:00,50.8,40.2,29.42,North,0,0.0,0.0,67,0.00,,,0.00,WUHU216HW,2014-01-12 23:30:00,
2014-01-12 15:35:00,50.9,40.3,29.41,North,0,0.0,0.0,67,0.00,,,0.00,WUHU216HW,2014-01-12 23:35:00,
2014-01-12 15:40:00,50.8,40.2,29.41,North,0,0.0,0.0,67,0.00,,,0.00,WUHU216HW,2014-01-12 23:40:00,
2014-01-12 15:45:00,50.9,40.3,29.41,North,0,0.0,0.0,67,0.00,,,0.00,WUHU216HW,2014-01-12 23:45:00,
2014-01-12 15:50:00,50.8,40.2,29.41,North,0,0.0,0.0,67,0.00,,,0.00,WUHU216HW,2014-01-12 23:50:00,
2014-01-12 15:55:00,50.8,40.2,29.41,North,0,0.0,0.0,67,0.00,,,0.00,WUHU216HW,2014-01-12 23:55:00,
2014-01-12 16:00:00,50.6,40.1,29.42,North,0,0.0,0.0,67,0.00,,,0.00,WUHU216HW,2014-01-13 00:00:00,
2014-01-12 16:05:00,50.8,40.2,29.42,North,0,0.0,0.0,67,0.00,,,0.00,WUHU216HW,2014-01-13 00:05:00,
2014-01-12 16:10:00,50.8,40.6,29.43,North,0,0.0,0.0,68,0.00,,,0.00,WUHU216HW,2014-01-13 00:10:00,
2014-01-12 16:15:00,50.6,40.4,29.43,North,0,0.0,0.0,68,0.00,,,0.00,WUHU216HW,2014-01-13 00:15:00,
2014-01-12 16:20:00,50.6,40.4,29.43,North,0,0.0,0.0,68,0.00,,,0.00,WUHU216HW,2014-01-13 00:20:00,
2014-01-12 16:25:00,50.4,39.9,29.44,North,0,0.0,0.0,67,0.00,,,0.00,WUHU216HW,2014-01-13 00:25:00,
2014-01-12 16:30:00,50.2,40.1,29.44,North,0,0.0,0.0,68,0.00,,,0.00,WUHU216HW,2014-01-13 00:30:00,
2014-01-12 16:35:00,50.2,40.1,29.45,North,0,0.0,0.0,68,0.00,,,0.00,WUHU216HW,2014-01-13 00:35:00,
2014-01-12 16:40:00,50.0,39.9,29.45,North,0,0.0,0.0,68,0.00,,,0.00,WUHU216HW,2014-01-13 00:40:00,
2014-01-12 16:45:00,49.9,40.2,29.45,North,0,0.0,0.0,69,0.00,,,0.00,WUHU216HW,2014-01-13 00:45:00,
2014-01-12 16:50:00,49.7,40.0,29.45,North,0,0.0,0.0,69,0.00,,,0.00,WUHU216HW,2014-01-13 00:50:00,
2014-01-12 16:55:00,49.5,40.1,29.45,North,0,0.0,0.0,70,0.00,,,0.00,WUHU216HW,2014-01-13 00:55:00,
2014-01-12 17:00:00,49.5,40.1,29.44,North,0,0.0,0.0,70,0.00,,,0.00,WUHU216HW,2014-01-13 01:00:00,
2014-01-12 17:05:00,49.3,40.0,29.44,North,0,0.0,0.0,70,0.00,,,0.00,WUHU216HW,2014-01-13 01:05:00,
2014-01-12 17:10:00,49.3,40.0,29.44,North,0,0.0,0.0,70,0.00,,,0.00,WUHU216HW,2014-01-13 01:10:00,
2014-01-12 17:15:00,49.3,40.0,29.44,North,0,0.0,0.0,70,0.00,,,0.00,WUHU216HW,2014-01-13 01:15:00,
2014-01-12 17:20:00,49.3,40.0,29.44,North,0,0.0,0.0,70,0.00,,,0.00,WUHU216HW,2014-01-13 01:20:00,
2014-01-12 17:25:00,49.3,40.0,29.43,North,0,0.0,0.0,70,0.00,,,0.00,WUHU216HW,2014-01-13 01:25:00,
2014-01-12 17:30:00,49.5,40.1,29.43,North,0,0.0,0.0,70,0.00,,,0.00,WUHU216HW,2014-01-13 01:30:00,
2014-01-12 17:35:00,49.5,40.1,29.43,North,0,0.0,0.0,70,0.00,,,0.00,WUHU216HW,2014-01-13 01:35:00,
2014-01-12 17:40:00,49.7,40.3,29.42,North,0,0.0,0.0,70,0.00,,,0.00,WUHU216HW,2014-01-13 01:40:00,
2014-01-12 17:45:00,49.9,40.5,29.43,North,0,0.0,0.0,70,0.00,,,0.00,WUHU216HW,2014-01-13 01:45:00,
2014-01-12 17:50:00,49.9,40.5,29.43,North,0,0.0,0.0,70,0.00,,,0.00,WUHU216HW,2014-01-13 01:50:00,
2014-01-12 17:55:00,50.0,40.7,29.44,North,0,0.0,0.0,70,0.00,,,0.00,WUHU216HW,2014-01-13 01:55:00,
2014-01-12 18:00:00,49.9,40.5,29.44,North,0,0.0,0.0,70,0.00,,,0.00,WUHU216HW,2014-01-13 02:00:00,
2014-01-12 18:05:00,49.9,40.9,29.45,North,0,0.0,0.0,71,0.00,,,0.00,WUHU216HW,2014-01-13 02:05:00,
2014-01-12 18:10:00,49.9,40.9,29.46,North,0,0.0,0.0,71,0.00,,,0.00,WUHU216HW,2014-01-13 02:10:00,
2014-01-12 18:15:00,49.7,40.7,29.46,North,0,0.0,0.0,71,0.00,,,0.00,WUHU216HW,2014-01-13 02:15:00,
2014-01-12 18:20:00,49.7,40.7,29.46,North,0,0.0,0.0,71,0.00,,,0.00,WUHU216HW,2014-01-13 02:20:00,
2014-01-12 18:25:00,49.7,40.7,29.47,North,0,0.0,0.0,71,0.00,,,0.00,WUHU216HW,2014-01-13 02:25:00,
2014-01-12 18:30:00,49.9,40.9,29.47,North,0,0.0,0.0,71,0.00,,,0.00,WUHU216HW,2014-01-13 02:30:00,
2014-01-12 18:35:00,50.0,41.1,29.46,North,0,0.0,0.0,71,0.00,,,0.00,WUHU216HW,2014-01-13 02:35:00,
2014-01-12 18:40:00,50.0,40.7,29.47,North,0,0.0,0.0,70,0.00,,,0.00,WUHU216HW,2014-01-13 02:40:00,
2014-01-12 18:45:00,50.2,40.9,29.47,North,0,0.0,0.0,70,0.00,,,0.00,WUHU216HW,2014-01-13 02:45:00,
2014-01-12 18:50:00,50.2,40.9,29.46,North,0,0.0,0.0,70,0.00,,,0.00,WUHU216HW,2014-01-13 02:50:00,
2014-01-12 18:55:00,50.0,40.7,29.46,North,0,0.0,0.0,70,0.00,,,0.00,WUHU216HW,2014-01-13 02:55:00,
2014-01-12 19:00:00,50.2,40.9,29.45,North,0,0.0,0.0,70,0.00,,,0.00,WUHU216HW,2014-01-13 03:00:00,
2014-01-12 19:05:00,50.4,41.0,29.45,North,0,0.0,0.0,70,0.00,,,0.00,WUHU216HW,2014-01-13 03:05:00,
2014-01-12 19:10:00,50.4,41.0,29.45,North,0,0.0,0.0,70,0.00,,,0.00,WUHU216HW,2014-01-13 03:10:00,
2014-01-12 19:15:00,50.4,41.0,29.46,North,0,0.0,0.0,70,0.00,,,0.00,WUHU216HW,2014-01-13 03:15:00,
2014-01-12 19:20:00,50.2,41.2,29.46,North,0,0.0,0.0,71,0.00,,,0.00,WUHU216HW,2014-01-13 03:20:00,
2014-01-12 19:25:00,50.2,41.2,29.46,North,0,0.0,0.0,71,0.00,,,0.00,WUHU216HW,2014-01-13 03:25:00,
2014-01-12 19:30:00,50.2,41.2,29.46,North,0,0.0,0.0,71,0.00,,,0.00,WUHU216HW,2014-01-13 03:30:00,
2014-01-12 19:35:00,50.0,41.1,29.46,North,0,0.0,0.0,71,0.00,,,0.00,WUHU216HW,2014-01-13 03:35:00,
2014-01-12 19:40:00,50.2,41.2,29.46,North,0,0.0,0.0,71,0.00,,,0.00,WUHU216HW,2014-01-13 03:40:00,
2014-01-12 19:45:00,50.4,41.0,29.47,North,0,0.0,0.0,70,0.00,,,0.00,WUHU216HW,2014-01-13 03:45:00,
2014-01-12 19:50:00,50.4,41.0,29.47,North,0,0.0,0.0,70,0.00,,,0.00,WUHU216HW,2014-01-13 03:50:00,
2014-01-12 19:55:00,50.4,41.0,29.47,North,0,0.0,0.0,70,0.00,,,0.00,WUHU216HW,2014-01-13 03:55:00,
2014-01-12 20:00:00,50.4,41.0,29.47,North,0,0.0,0.0,70,0.00,,,0.00,WUHU216HW,2014-01-13 04:00:00,
2014-01-12 20:05:00,50.4,41.0,29.47,North,0,0.0,0.0,70,0.00,,,0.00,WUHU216HW,2014-01-13 04:05:00,
2014-01-12 20:10:00,50.2,41.2,29.48,North,0,0.0,0.0,71,0.00,,,0.00,WUHU216HW,2014-01-13 04:10:00,
2014-01-12 20:15:00,50.2,41.2,29.49,North,0,0.0,0.0,71,0.00,,,0.00,WUHU216HW,2014-01-13 04:15:00,
2014-01-12 20:20:00,50.2,41.2,29.48,North,0,0.0,0.0,71,0.00,,,0.00,WUHU216HW,2014-01-13 04:20:00,
2014-01-12 20:25:00,50.0,41.1,29.49,North,0,0.0,0.0,71,0.00,,,0.00,WUHU216HW,2014-01-13 04:25:00,
2014-01-12 20:30:00,50.0,41.4,29.49,North,0,0.0,0.0,72,0.00,,,0.00,WUHU216HW,2014-01-13 04:30:00,
2014-01-12 20:35:00,50.0,41.4,29.49,North,0,0.0,0.0,72,0.00,,,0.00,WUHU216HW,2014-01-13 04:35:00,
2014-01-12 20:40:00,49.9,41.2,29.49,North,0,0.0,0.0,72,0.00,,,0.00,WUHU216HW,2014-01-13 04:40:00,
2014-01-12 20:45:00,50.0,41.4,29.48,North,0,0.0,0.0,72,0.00,,,0.00,WUHU216HW,2014-01-13 04:45:00,
2014-01-12 20:50:00,50.0,41.4,29.49,North,0,0.0,0.0,72,0.00,,,0.00,WUHU216HW,2014-01-13 04:50:00,
2014-01-12 20:55:00,50.0,41.4,29.49,North,0,0.0,0.0,72,0.00,,,0.00,WUHU216HW,2014-01-13 04:55:00,
2014-01-12 21:00:00,50.0,41.4,29.49,North,0,0.0,0.0,72,0.00,,,0.00,WUHU216HW,2014-01-13 05:00:00,
2014-01-12 21:05:00,50.0,41.4,29.50,North,0,0.0,0.0,72,0.00,,,0.00,WUHU216HW,2014-01-13 05:05:00,
2014-01-12 21:10:00,50.0,41.4,29.50,North,0,0.0,0.0,72,0.00,,,0.00,WUHU216HW,2014-01-13 05:10:00,
2014-01-12 21:15:00,50.0,41.4,29.50,North,0,0.0,0.0,72,0.00,,,0.00,WUHU216HW,2014-01-13 05:15:00,
2014-01-12 21:20:00,50.0,41.4,29.51,North,0,0.0,0.0,72,0.00,,,0.00,WUHU216HW,2014-01-13 05:20:00,
2014-01-12 21:25:00,50.0,41.4,29.50,North,0,0.0,0.0,72,0.00,,,0.00,WUHU216HW,2014-01-13 05:25:00,
2014-01-12 21:30:00,50.0,41.4,29.51,North,0,0.0,0.0,72,0.00,,,0.00,WUHU216HW,2014-01-13 05:30:00,
2014-01-12 21:35:00,50.0,41.1,29.50,North,0,0.0,0.0,71,0.00,,,0.00,WUHU216HW,2014-01-13 05:35:00,
2014-01-12 21:40:00,50.2,40.9,29.51,North,0,0.0,0.0,70,0.00,,,0.00,WUHU216HW,2014-01-13 05:40:00,
2014-01-12 21:46:00,50.2,40.9,29.51,North,0,0.0,0.0,70,0.00,,,0.00,WUHU216HW,2014-01-13 05:46:00,
2014-01-12 21:51:00,50.2,40.9,29.51,North,0,0.0,0.0,70,0.00,,,0.00,WUHU216HW,2014-01-13 05:51:00,
2014-01-12 21:56:00,50.2,40.9,29.51,North,0,0.0,0.0,70,0.00,,,0.00,WUHU216HW,2014-01-13 05:56:00,
2014-01-12 22:01:00,50.2,40.9,29.50,North,0,0.0,0.0,70,0.00,,,0.00,WUHU216HW,2014-01-13 06:01:00,
2014-01-12 22:06:00,50.2,40.9,29.51,North,0,0.0,0.0,70,0.00,,,0.00,WUHU216HW,2014-01-13 06:06:00,
2014-01-12 22:11:00,50.0,40.7,29.52,North,0,0.0,0.0,70,0.00,,,0.00,WUHU216HW,2014-01-13 06:11:00,
2014-01-12 22:16:00,49.9,40.9,29.51,North,0,0.0,0.0,71,0.00,,,0.00,WUHU216HW,2014-01-13 06:16:00,
2014-01-12 22:21:00,49.7,40.7,29.51,North,0,0.0,0.0,71,0.00,,,0.00,WUHU216HW,2014-01-13 06:21:00,
2014-01-12 22:26:00,49.5,40.5,29.52,North,0,0.0,0.0,71,0.00,,,0.00,WUHU216HW,2014-01-13 06:26:00,
2014-01-12 22:31:00,49.3,40.3,29.52,North,0,0.0,0.0,71,0.00,,,0.00,WUHU216HW,2014-01-13 06:31:00,
2014-01-12 22:36:00,49.3,40.3,29.52,North,0,0.0,0.0,71,0.00,,,0.00,WUHU216HW,2014-01-13 06:36:00,
2014-01-12 22:41:00,49.3,40.0,29.52,North,0,0.0,0.0,70,0.00,,,0.00,WUHU216HW,2014-01-13 06:41:00,
2014-01-12 22:46:00,49.5,39.8,29.52,North,0,0.0,0.0,69,0.00,,,0.00,WUHU216HW,2014-01-13 06:46:00,
2014-01-12 22:51:00,49.3,39.2,29.53,North,0,0.0,0.0,68,0.00,,,0.00,WUHU216HW,2014-01-13 06:51:00,
2014-01-12 22:56:00,49.3,39.6,29.54,North,0,0.0,0.0,69,0.00,,,0.00,WUHU216HW,2014-01-13 06:56:00,
2014-01-12 23:01:00,49.3,39.2,29.54,North,0,0.0,0.0,68,0.00,,,0.00,WUHU216HW,2014-01-13 07:01:00,
2014-01-12 23:06:00,49.3,39.2,29.55,North,0,0.0,0.0,68,0.00,,,0.00,WUHU216HW,2014-01-13 07:06:00,
2014-01-12 23:11:00,48.8,39.1,29.56,North,0,0.0,0.0,69,0.00,,,0.00,WUHU216HW,2014-01-13 07:11:00,
2014-01-12 23:16:00,48.8,39.1,29.56,North,0,0.0,0.0,69,0.00,,,0.00,WUHU216HW,2014-01-13 07:16:00,
2014-01-12 23:21:00,48.8,39.1,29.56,North,0,0.0,0.0,69,0.00,,,0.00,WUHU216HW,2014-01-13 07:21:00,
2014-01-12 23:26:00,49.0,38.8,29.56,North,0,0.0,0.0,68,0.00,,,0.00,WUHU216HW,2014-01-13 07:26:00,
2014-01-12 23:31:00,49.0,38.8,29.56,North,0,0.0,0.0,68,0.00,,,0.00,WUHU216HW,2014-01-13 07:31:00,
2014-01-12 23:36:00,49.0,38.8,29.57,North,0,0.0,0.0,68,0.00,,,0.00,WUHU216HW,2014-01-13 07:36:00,
2014-01-12 23:41:00,49.0,38.4,29.58,North,0,0.0,0.0,67,0.00,,,0.00,WUHU216HW,2014-01-13 07:41:00,
2014-01-12 23:46:00,48.8,38.3,29.58,North,0,0.0,0.0,67,0.00,,,0.00,WUHU216HW,2014-01-13 07:46:00,
2014-01-12 23:51:00,48.8,38.3,29.58,North,0,0.0,0.0,67,0.00,,,0.00,WUHU216HW,2014-01-13 07:51:00,
2014-01-12 23:56:00,48.8,38.3,29.58,North,0,0.0,0.0,67,0.00,,,0.00,WUHU216HW,2014-01-13 07:56:00,